sensor_id;sensor_type;location;lat;lon;timestamp;P1;durP1;ratioP1;P2;durP2;ratioP2
57778;SDS011;43608;49.486;9.640;2022-10-15T00:00:17;4.00;;;2.53;;
57778;SDS011;43608;49.486;9.640;2022-10-15T00:00:48;3.63;;;2.30;;
57778;SDS011;43608;49.486;9.640;2022-10-15T00:01:18;3.10;;;2.00;;
57778;SDS011;43608;49.486;9.640;2022-10-15T00:01:48;3.22;;;1.95;;
57778;SDS011;43608;49.486;9.640;2022-10-15T00:02:19;3.08;;;2.05;;
57778;SDS011;43608;49.486;9.640;2022-10-15T00:02:49;2.85;;;1.90;;
57778;SDS011;43608;49.486;9.640;2022-10-15T00:03:20;3.25;;;1.90;;
57778;SDS011;43608;49.486;9.640;2022-10-15T00:03:50;2.80;;;1.80;;
57778;SDS011;43608;49.486;9.640;2022-10-15T00:04:20;2.60;;;1.80;;
57778;SDS011;43608;49.486;9.640;2022-10-15T00:04:51;2.63;;;1.83;;
57778;SDS011;43608;49.486;9.640;2022-10-15T00:05:21;1.95;;;1.50;;
57778;SDS011;43608;49.486;9.640;2022-10-15T00:05:52;2.47;;;1.60;;
57778;SDS011;43608;49.486;9.640;2022-10-15T00:06:22;1.60;;;1.50;;
57778;SDS011;43608;49.486;9.640;2022-10-15T00:06:53;2.05;;;1.52;;
57778;SDS011;43608;49.486;9.640;2022-10-15T00:07:23;1.90;;;1.65;;
57778;SDS011;43608;49.486;9.640;2022-10-15T00:07:54;1.58;;;1.42;;
57778;SDS011;43608;49.486;9.640;2022-10-15T00:08:24;1.70;;;1.40;;
57778;SDS011;43608;49.486;9.640;2022-10-15T00:08:55;1.73;;;1.33;;
57778;SDS011;43608;49.486;9.640;2022-10-15T00:09:25;1.58;;;1.30;;
57778;SDS011;43608;49.486;9.640;2022-10-15T00:09:55;1.55;;;1.30;;
57778;SDS011;43608;49.486;9.640;2022-10-15T00:10:26;1.40;;;1.30;;
57778;SDS011;43608;49.486;9.640;2022-10-15T00:11:00;1.40;;;1.30;;
57778;SDS011;43608;49.486;9.640;2022-10-15T00:11:32;1.77;;;1.30;;
57778;SDS011;43608;49.486;9.640;2022-10-15T00:12:02;1.30;;;1.20;;
57778;SDS011;43608;49.486;9.640;2022-10-15T00:12:33;1.45;;;1.23;;
57778;SDS011;43608;49.486;9.640;2022-10-15T00:13:03;1.65;;;1.40;;
57778;SDS011;43608;49.486;9.640;2022-10-15T00:13:34;1.10;;;1.10;;
57778;SDS011;43608;49.486;9.640;2022-10-15T00:14:05;1.15;;;1.10;;
57778;SDS011;43608;49.486;9.640;2022-10-15T00:14:36;0.93;;;0.93;;
57778;SDS011;43608;49.486;9.640;2022-10-15T00:15:06;1.30;;;1.20;;
57778;SDS011;43608;49.486;9.640;2022-10-15T00:15:37;1.80;;;1.10;;
57778;SDS011;43608;49.486;9.640;2022-10-15T00:16:10;1.17;;;1.08;;
57778;SDS011;43608;49.486;9.640;2022-10-15T00:16:42;1.27;;;1.17;;
57778;SDS011;43608;49.486;9.640;2022-10-15T00:17:13;1.33;;;1.10;;
57778;SDS011;43608;49.486;9.640;2022-10-15T00:17:43;1.55;;;1.30;;
57778;SDS011;43608;49.486;9.640;2022-10-15T00:18:14;1.40;;;1.27;;
57778;SDS011;43608;49.486;9.640;2022-10-15T00:18:44;1.85;;;1.50;;
57778;SDS011;43608;49.486;9.640;2022-10-15T00:19:15;1.70;;;1.60;;
57778;SDS011;43608;49.486;9.640;2022-10-15T00:19:45;1.88;;;1.65;;
57778;SDS011;43608;49.486;9.640;2022-10-15T00:20:16;2.00;;;1.70;;
57778;SDS011;43608;49.486;9.640;2022-10-15T00:20:46;2.00;;;1.70;;
57778;SDS011;43608;49.486;9.640;2022-10-15T00:21:17;2.05;;;1.85;;
57778;SDS011;43608;49.486;9.640;2022-10-15T00:21:49;2.28;;;1.85;;
57778;SDS011;43608;49.486;9.640;2022-10-15T00:22:19;2.10;;;1.80;;
57778;SDS011;43608;49.486;9.640;2022-10-15T00:22:50;2.05;;;1.85;;
57778;SDS011;43608;49.486;9.640;2022-10-15T00:23:20;2.35;;;1.88;;
57778;SDS011;43608;49.486;9.640;2022-10-15T00:23:51;1.98;;;1.77;;
57778;SDS011;43608;49.486;9.640;2022-10-15T00:24:21;2.33;;;1.80;;
57778;SDS011;43608;49.486;9.640;2022-10-15T00:24:51;2.13;;;1.80;;
57778;SDS011;43608;49.486;9.640;2022-10-15T00:25:22;2.33;;;1.95;;
57778;SDS011;43608;49.486;9.640;2022-10-15T00:26:05;2.20;;;1.90;;
57778;SDS011;43608;49.486;9.640;2022-10-15T00:26:37;2.53;;;2.00;;
57778;SDS011;43608;49.486;9.640;2022-10-15T00:27:08;2.53;;;2.10;;
57778;SDS011;43608;49.486;9.640;2022-10-15T00:27:38;3.13;;;2.20;;
57778;SDS011;43608;49.486;9.640;2022-10-15T00:28:09;3.78;;;2.67;;
57778;SDS011;43608;49.486;9.640;2022-10-15T00:28:39;2.88;;;2.20;;
57778;SDS011;43608;49.486;9.640;2022-10-15T00:29:10;2.65;;;2.10;;
57778;SDS011;43608;49.486;9.640;2022-10-15T00:29:41;2.67;;;2.20;;
57778;SDS011;43608;49.486;9.640;2022-10-15T00:30:11;2.67;;;2.10;;
57778;SDS011;43608;49.486;9.640;2022-10-15T00:30:42;2.88;;;2.10;;
57778;SDS011;43608;49.486;9.640;2022-10-15T00:31:13;2.33;;;1.98;;
57778;SDS011;43608;49.486;9.640;2022-10-15T00:31:45;2.58;;;2.00;;
57778;SDS011;43608;49.486;9.640;2022-10-15T00:32:15;2.33;;;1.90;;
57778;SDS011;43608;49.486;9.640;2022-10-15T00:32:46;1.95;;;1.75;;
57778;SDS011;43608;49.486;9.640;2022-10-15T00:33:16;2.22;;;1.77;;
57778;SDS011;43608;49.486;9.640;2022-10-15T00:33:47;2.30;;;1.80;;
57778;SDS011;43608;49.486;9.640;2022-10-15T00:34:18;2.13;;;1.67;;
57778;SDS011;43608;49.486;9.640;2022-10-15T00:34:49;1.75;;;1.60;;
57778;SDS011;43608;49.486;9.640;2022-10-15T00:35:19;2.20;;;1.70;;
57778;SDS011;43608;49.486;9.640;2022-10-15T00:35:57;2.75;;;2.00;;
57778;SDS011;43608;49.486;9.640;2022-10-15T00:36:29;2.47;;;1.90;;
57778;SDS011;43608;49.486;9.640;2022-10-15T00:37:01;2.92;;;2.22;;
57778;SDS011;43608;49.486;9.640;2022-10-15T00:37:32;4.22;;;2.83;;
57778;SDS011;43608;49.486;9.640;2022-10-15T00:38:02;4.63;;;2.90;;
57778;SDS011;43608;49.486;9.640;2022-10-15T00:38:33;5.15;;;3.10;;
57778;SDS011;43608;49.486;9.640;2022-10-15T00:39:04;4.53;;;3.00;;
57778;SDS011;43608;49.486;9.640;2022-10-15T00:39:35;5.55;;;3.50;;
57778;SDS011;43608;49.486;9.640;2022-10-15T00:40:05;5.95;;;3.75;;
57778;SDS011;43608;49.486;9.640;2022-10-15T00:40:39;5.85;;;3.70;;
57778;SDS011;43608;49.486;9.640;2022-10-15T00:41:14;5.60;;;3.58;;
57778;SDS011;43608;49.486;9.640;2022-10-15T00:41:47;6.30;;;3.60;;
57778;SDS011;43608;49.486;9.640;2022-10-15T00:42:17;6.30;;;4.05;;
57778;SDS011;43608;49.486;9.640;2022-10-15T00:42:47;7.07;;;4.47;;
57778;SDS011;43608;49.486;9.640;2022-10-15T00:43:33;6.53;;;4.00;;
57778;SDS011;43608;49.486;9.640;2022-10-15T00:44:52;8.32;;;4.80;;
57778;SDS011;43608;49.486;9.640;2022-10-15T00:45:25;7.93;;;4.68;;
57778;SDS011;43608;49.486;9.640;2022-10-15T00:45:55;7.72;;;4.60;;
57778;SDS011;43608;49.486;9.640;2022-10-15T00:47:13;7.72;;;4.50;;
57778;SDS011;43608;49.486;9.640;2022-10-15T00:47:47;7.18;;;4.40;;
57778;SDS011;43608;49.486;9.640;2022-10-15T00:48:18;7.10;;;4.15;;
57778;SDS011;43608;49.486;9.640;2022-10-15T00:48:50;7.13;;;3.83;;
57778;SDS011;43608;49.486;9.640;2022-10-15T00:49:25;6.35;;;3.90;;
57778;SDS011;43608;49.486;9.640;2022-10-15T00:50:30;6.88;;;3.90;;
57778;SDS011;43608;49.486;9.640;2022-10-15T00:50:56;7.32;;;3.42;;
57778;SDS011;43608;49.486;9.640;2022-10-15T00:51:32;5.03;;;3.15;;
57778;SDS011;43608;49.486;9.640;2022-10-15T00:53:11;4.95;;;2.80;;
57778;SDS011;43608;49.486;9.640;2022-10-15T00:53:41;4.55;;;2.60;;
57778;SDS011;43608;49.486;9.640;2022-10-15T00:54:13;4.53;;;2.63;;
57778;SDS011;43608;49.486;9.640;2022-10-15T00:54:55;3.75;;;2.30;;
57778;SDS011;43608;49.486;9.640;2022-10-15T00:55:31;4.00;;;2.40;;
57778;SDS011;43608;49.486;9.640;2022-10-15T00:56:05;3.58;;;2.15;;
57778;SDS011;43608;49.486;9.640;2022-10-15T00:56:36;2.78;;;1.95;;
57778;SDS011;43608;49.486;9.640;2022-10-15T00:57:09;3.17;;;1.95;;
57778;SDS011;43608;49.486;9.640;2022-10-15T00:57:40;3.80;;;2.20;;
57778;SDS011;43608;49.486;9.640;2022-10-15T00:58:13;3.20;;;2.13;;
57778;SDS011;43608;49.486;9.640;2022-10-15T00:58:46;3.05;;;2.05;;
57778;SDS011;43608;49.486;9.640;2022-10-15T00:59:17;2.20;;;1.73;;
57778;SDS011;43608;49.486;9.640;2022-10-15T00:59:52;2.72;;;1.70;;
57778;SDS011;43608;49.486;9.640;2022-10-15T01:00:27;2.13;;;1.60;;
57778;SDS011;43608;49.486;9.640;2022-10-15T01:00:58;1.77;;;1.50;;
57778;SDS011;43608;49.486;9.640;2022-10-15T01:01:28;2.35;;;1.77;;
57778;SDS011;43608;49.486;9.640;2022-10-15T01:01:59;1.67;;;1.40;;
57778;SDS011;43608;49.486;9.640;2022-10-15T01:02:30;1.35;;;1.25;;
57778;SDS011;43608;49.486;9.640;2022-10-15T01:03:00;2.35;;;1.70;;
57778;SDS011;43608;49.486;9.640;2022-10-15T01:03:31;1.73;;;1.50;;
57778;SDS011;43608;49.486;9.640;2022-10-15T01:04:05;1.80;;;1.40;;
57778;SDS011;43608;49.486;9.640;2022-10-15T01:04:36;1.90;;;1.40;;
57778;SDS011;43608;49.486;9.640;2022-10-15T01:05:07;1.63;;;1.30;;
57778;SDS011;43608;49.486;9.640;2022-10-15T01:05:38;1.42;;;1.33;;
57778;SDS011;43608;49.486;9.640;2022-10-15T01:06:09;1.60;;;1.30;;
57778;SDS011;43608;49.486;9.640;2022-10-15T01:06:40;1.85;;;1.30;;
57778;SDS011;43608;49.486;9.640;2022-10-15T01:07:10;1.58;;;1.20;;
57778;SDS011;43608;49.486;9.640;2022-10-15T01:07:40;1.27;;;1.17;;
57778;SDS011;43608;49.486;9.640;2022-10-15T01:08:11;0.98;;;0.98;;
57778;SDS011;43608;49.486;9.640;2022-10-15T01:08:41;1.70;;;1.10;;
57778;SDS011;43608;49.486;9.640;2022-10-15T01:09:12;1.23;;;1.10;;
57778;SDS011;43608;49.486;9.640;2022-10-15T01:09:43;1.25;;;1.05;;
57778;SDS011;43608;49.486;9.640;2022-10-15T01:10:13;0.82;;;0.82;;
57778;SDS011;43608;49.486;9.640;2022-10-15T01:10:49;0.80;;;0.80;;
57778;SDS011;43608;49.486;9.640;2022-10-15T01:11:45;0.68;;;0.68;;
57778;SDS011;43608;49.486;9.640;2022-10-15T01:14:50;0.70;;;0.70;;
57778;SDS011;43608;49.486;9.640;2022-10-15T01:15:25;0.70;;;0.70;;
57778;SDS011;43608;49.486;9.640;2022-10-15T01:16:07;2.70;;;1.83;;
57778;SDS011;43608;49.486;9.640;2022-10-15T01:16:49;4.30;;;2.33;;
57778;SDS011;43608;49.486;9.640;2022-10-15T01:17:47;4.22;;;2.10;;
57778;SDS011;43608;49.486;9.640;2022-10-15T01:18:43;4.45;;;2.30;;
57778;SDS011;43608;49.486;9.640;2022-10-15T01:20:22;3.08;;;1.85;;
57778;SDS011;43608;49.486;9.640;2022-10-15T01:21:53;3.08;;;1.60;;
57778;SDS011;43608;49.486;9.640;2022-10-15T01:22:45;3.33;;;1.80;;
57778;SDS011;43608;49.486;9.640;2022-10-15T01:23:56;2.72;;;1.50;;
57778;SDS011;43608;49.486;9.640;2022-10-15T01:27:26;4.22;;;1.98;;
57778;SDS011;43608;49.486;9.640;2022-10-15T01:31:01;3.65;;;2.05;;
57778;SDS011;43608;49.486;9.640;2022-10-15T01:32:27;3.67;;;2.17;;
57778;SDS011;43608;49.486;9.640;2022-10-15T01:33:03;3.47;;;2.10;;
57778;SDS011;43608;49.486;9.640;2022-10-15T01:33:48;3.30;;;1.80;;
57778;SDS011;43608;49.486;9.640;2022-10-15T01:34:36;3.88;;;1.90;;
57778;SDS011;43608;49.486;9.640;2022-10-15T01:36:20;2.03;;;1.60;;
57778;SDS011;43608;49.486;9.640;2022-10-15T01:38:43;2.17;;;1.50;;
57778;SDS011;43608;49.486;9.640;2022-10-15T01:39:21;1.83;;;1.27;;
57778;SDS011;43608;49.486;9.640;2022-10-15T01:39:58;1.95;;;1.30;;
57778;SDS011;43608;49.486;9.640;2022-10-15T01:40:43;1.40;;;1.10;;
57778;SDS011;43608;49.486;9.640;2022-10-15T01:41:21;1.25;;;1.15;;
57778;SDS011;43608;49.486;9.640;2022-10-15T01:42:21;0.90;;;0.90;;
57778;SDS011;43608;49.486;9.640;2022-10-15T01:42:59;1.40;;;1.02;;
57778;SDS011;43608;49.486;9.640;2022-10-15T01:43:38;1.20;;;1.10;;
57778;SDS011;43608;49.486;9.640;2022-10-15T01:44:38;1.00;;;1.00;;
57778;SDS011;43608;49.486;9.640;2022-10-15T01:45:09;1.10;;;1.00;;
57778;SDS011;43608;49.486;9.640;2022-10-15T01:45:51;0.60;;;0.60;;
57778;SDS011;43608;49.486;9.640;2022-10-15T01:46:28;0.70;;;0.70;;
57778;SDS011;43608;49.486;9.640;2022-10-15T01:47:23;1.10;;;1.00;;
57778;SDS011;43608;49.486;9.640;2022-10-15T01:48:03;1.13;;;0.90;;
57778;SDS011;43608;49.486;9.640;2022-10-15T01:48:38;0.77;;;0.73;;
57778;SDS011;43608;49.486;9.640;2022-10-15T01:49:11;0.73;;;0.73;;
57778;SDS011;43608;49.486;9.640;2022-10-15T01:49:44;0.47;;;0.47;;
57778;SDS011;43608;49.486;9.640;2022-10-15T01:50:16;0.40;;;0.40;;
57778;SDS011;43608;49.486;9.640;2022-10-15T01:50:50;0.60;;;0.60;;
57778;SDS011;43608;49.486;9.640;2022-10-15T01:51:24;0.30;;;0.30;;
57778;SDS011;43608;49.486;9.640;2022-10-15T01:51:57;0.88;;;0.88;;
57778;SDS011;43608;49.486;9.640;2022-10-15T01:52:33;0.82;;;0.82;;
57778;SDS011;43608;49.486;9.640;2022-10-15T01:53:08;0.77;;;0.52;;
57778;SDS011;43608;49.486;9.640;2022-10-15T01:53:42;0.60;;;0.60;;
57778;SDS011;43608;49.486;9.640;2022-10-15T01:54:15;0.60;;;0.60;;
57778;SDS011;43608;49.486;9.640;2022-10-15T01:54:48;0.43;;;0.43;;
57778;SDS011;43608;49.486;9.640;2022-10-15T01:55:21;0.40;;;0.40;;
57778;SDS011;43608;49.486;9.640;2022-10-15T01:55:55;0.65;;;0.65;;
57778;SDS011;43608;49.486;9.640;2022-10-15T01:56:29;0.47;;;0.47;;
57778;SDS011;43608;49.486;9.640;2022-10-15T01:57:02;0.38;;;0.38;;
57778;SDS011;43608;49.486;9.640;2022-10-15T01:57:35;0.52;;;0.52;;
57778;SDS011;43608;49.486;9.640;2022-10-15T01:58:08;0.65;;;0.65;;
57778;SDS011;43608;49.486;9.640;2022-10-15T01:58:41;0.70;;;0.70;;
57778;SDS011;43608;49.486;9.640;2022-10-15T01:59:13;0.32;;;0.32;;
57778;SDS011;43608;49.486;9.640;2022-10-15T01:59:44;0.55;;;0.55;;
57778;SDS011;43608;49.486;9.640;2022-10-15T02:00:14;0.50;;;0.50;;
57778;SDS011;43608;49.486;9.640;2022-10-15T02:00:45;0.40;;;0.40;;
57778;SDS011;43608;49.486;9.640;2022-10-15T02:01:16;0.40;;;0.40;;
57778;SDS011;43608;49.486;9.640;2022-10-15T02:01:47;0.30;;;0.30;;
57778;SDS011;43608;49.486;9.640;2022-10-15T02:02:17;0.60;;;0.60;;
57778;SDS011;43608;49.486;9.640;2022-10-15T02:02:47;0.28;;;0.28;;
57778;SDS011;43608;49.486;9.640;2022-10-15T02:03:18;0.40;;;0.40;;
57778;SDS011;43608;49.486;9.640;2022-10-15T02:03:49;0.35;;;0.35;;
57778;SDS011;43608;49.486;9.640;2022-10-15T02:04:21;0.40;;;0.40;;
57778;SDS011;43608;49.486;9.640;2022-10-15T02:04:54;0.40;;;0.40;;
57778;SDS011;43608;49.486;9.640;2022-10-15T02:05:26;0.30;;;0.30;;
57778;SDS011;43608;49.486;9.640;2022-10-15T02:06:17;0.40;;;0.40;;
57778;SDS011;43608;49.486;9.640;2022-10-15T02:07:03;0.30;;;0.30;;
57778;SDS011;43608;49.486;9.640;2022-10-15T02:07:46;0.65;;;0.65;;
57778;SDS011;43608;49.486;9.640;2022-10-15T02:08:30;0.30;;;0.30;;
57778;SDS011;43608;49.486;9.640;2022-10-15T02:10:00;0.38;;;0.38;;
57778;SDS011;43608;49.486;9.640;2022-10-15T02:10:39;0.40;;;0.35;;
57778;SDS011;43608;49.486;9.640;2022-10-15T02:11:16;0.40;;;0.40;;
57778;SDS011;43608;49.486;9.640;2022-10-15T02:14:46;0.40;;;0.40;;
57778;SDS011;43608;49.486;9.640;2022-10-15T02:16:51;0.28;;;0.28;;
57778;SDS011;43608;49.486;9.640;2022-10-15T02:17:30;0.30;;;0.30;;
57778;SDS011;43608;49.486;9.640;2022-10-15T02:18:23;0.50;;;0.50;;
57778;SDS011;43608;49.486;9.640;2022-10-15T02:19:05;0.52;;;0.52;;
57778;SDS011;43608;49.486;9.640;2022-10-15T02:20:39;0.45;;;0.45;;
57778;SDS011;43608;49.486;9.640;2022-10-15T02:22:07;0.47;;;0.47;;
57778;SDS011;43608;49.486;9.640;2022-10-15T02:23:20;0.40;;;0.40;;
57778;SDS011;43608;49.486;9.640;2022-10-15T02:24:07;0.38;;;0.38;;
57778;SDS011;43608;49.486;9.640;2022-10-15T02:24:55;0.30;;;0.30;;
57778;SDS011;43608;49.486;9.640;2022-10-15T02:25:31;0.40;;;0.40;;
57778;SDS011;43608;49.486;9.640;2022-10-15T02:26:04;0.43;;;0.43;;
57778;SDS011;43608;49.486;9.640;2022-10-15T02:26:38;0.30;;;0.30;;
57778;SDS011;43608;49.486;9.640;2022-10-15T02:27:11;0.40;;;0.40;;
57778;SDS011;43608;49.486;9.640;2022-10-15T02:27:44;0.85;;;0.60;;
57778;SDS011;43608;49.486;9.640;2022-10-15T02:28:17;0.47;;;0.47;;
57778;SDS011;43608;49.486;9.640;2022-10-15T02:28:53;0.32;;;0.32;;
57778;SDS011;43608;49.486;9.640;2022-10-15T02:29:29;0.20;;;0.20;;
57778;SDS011;43608;49.486;9.640;2022-10-15T02:30:04;0.30;;;0.20;;
57778;SDS011;43608;49.486;9.640;2022-10-15T02:30:37;0.30;;;0.30;;
57778;SDS011;43608;49.486;9.640;2022-10-15T02:31:11;0.22;;;0.22;;
57778;SDS011;43608;49.486;9.640;2022-10-15T02:31:45;0.68;;;0.52;;
57778;SDS011;43608;49.486;9.640;2022-10-15T02:32:18;0.30;;;0.30;;
57778;SDS011;43608;49.486;9.640;2022-10-15T02:32:51;0.57;;;0.57;;
57778;SDS011;43608;49.486;9.640;2022-10-15T02:33:25;0.40;;;0.40;;
57778;SDS011;43608;49.486;9.640;2022-10-15T02:33:57;0.22;;;0.22;;
57778;SDS011;43608;49.486;9.640;2022-10-15T02:34:32;0.28;;;0.28;;
57778;SDS011;43608;49.486;9.640;2022-10-15T02:35:05;0.40;;;0.40;;
57778;SDS011;43608;49.486;9.640;2022-10-15T02:35:37;0.30;;;0.30;;
57778;SDS011;43608;49.486;9.640;2022-10-15T02:36:09;0.28;;;0.28;;
57778;SDS011;43608;49.486;9.640;2022-10-15T02:36:40;0.30;;;0.30;;
57778;SDS011;43608;49.486;9.640;2022-10-15T02:37:11;0.28;;;0.28;;
57778;SDS011;43608;49.486;9.640;2022-10-15T02:37:45;0.30;;;0.30;;
57778;SDS011;43608;49.486;9.640;2022-10-15T02:38:19;0.40;;;0.40;;
57778;SDS011;43608;49.486;9.640;2022-10-15T02:38:54;0.30;;;0.30;;
57778;SDS011;43608;49.486;9.640;2022-10-15T02:39:25;0.10;;;0.10;;
57778;SDS011;43608;49.486;9.640;2022-10-15T02:39:56;0.45;;;0.45;;
57778;SDS011;43608;49.486;9.640;2022-10-15T02:40:27;0.15;;;0.15;;
57778;SDS011;43608;49.486;9.640;2022-10-15T02:41:01;0.28;;;0.28;;
57778;SDS011;43608;49.486;9.640;2022-10-15T02:41:33;0.25;;;0.25;;
57778;SDS011;43608;49.486;9.640;2022-10-15T02:42:04;0.30;;;0.30;;
57778;SDS011;43608;49.486;9.640;2022-10-15T02:42:35;0.20;;;0.20;;
57778;SDS011;43608;49.486;9.640;2022-10-15T02:43:07;0.30;;;0.30;;
57778;SDS011;43608;49.486;9.640;2022-10-15T02:43:40;0.30;;;0.30;;
57778;SDS011;43608;49.486;9.640;2022-10-15T02:44:10;0.22;;;0.22;;
57778;SDS011;43608;49.486;9.640;2022-10-15T02:44:40;0.30;;;0.30;;
57778;SDS011;43608;49.486;9.640;2022-10-15T02:45:11;0.30;;;0.30;;
57778;SDS011;43608;49.486;9.640;2022-10-15T02:45:41;0.40;;;0.40;;
57778;SDS011;43608;49.486;9.640;2022-10-15T02:46:12;0.40;;;0.40;;
57778;SDS011;43608;49.486;9.640;2022-10-15T02:46:44;0.35;;;0.35;;
57778;SDS011;43608;49.486;9.640;2022-10-15T02:47:15;0.40;;;0.40;;
57778;SDS011;43608;49.486;9.640;2022-10-15T02:47:45;0.65;;;0.40;;
57778;SDS011;43608;49.486;9.640;2022-10-15T02:48:16;0.20;;;0.20;;
57778;SDS011;43608;49.486;9.640;2022-10-15T02:48:46;0.32;;;0.32;;
57778;SDS011;43608;49.486;9.640;2022-10-15T02:49:17;0.30;;;0.30;;
57778;SDS011;43608;49.486;9.640;2022-10-15T02:49:47;0.20;;;0.20;;
57778;SDS011;43608;49.486;9.640;2022-10-15T02:50:18;0.30;;;0.30;;
57778;SDS011;43608;49.486;9.640;2022-10-15T02:50:48;0.57;;;0.40;;
57778;SDS011;43608;49.486;9.640;2022-10-15T02:51:18;0.30;;;0.22;;
57778;SDS011;43608;49.486;9.640;2022-10-15T02:51:49;0.45;;;0.45;;
57778;SDS011;43608;49.486;9.640;2022-10-15T02:52:19;0.20;;;0.20;;
57778;SDS011;43608;49.486;9.640;2022-10-15T02:52:50;0.70;;;0.70;;
57778;SDS011;43608;49.486;9.640;2022-10-15T02:53:20;0.57;;;0.57;;
57778;SDS011;43608;49.486;9.640;2022-10-15T02:53:50;0.30;;;0.30;;
57778;SDS011;43608;49.486;9.640;2022-10-15T02:54:21;0.60;;;0.60;;
57778;SDS011;43608;49.486;9.640;2022-10-15T02:54:51;0.45;;;0.45;;
57778;SDS011;43608;49.486;9.640;2022-10-15T02:55:21;0.45;;;0.45;;
57778;SDS011;43608;49.486;9.640;2022-10-15T02:55:52;0.20;;;0.20;;
57778;SDS011;43608;49.486;9.640;2022-10-15T02:56:22;0.55;;;0.55;;
57778;SDS011;43608;49.486;9.640;2022-10-15T02:56:52;0.45;;;0.45;;
57778;SDS011;43608;49.486;9.640;2022-10-15T02:57:23;0.32;;;0.32;;
57778;SDS011;43608;49.486;9.640;2022-10-15T02:57:53;0.52;;;0.52;;
57778;SDS011;43608;49.486;9.640;2022-10-15T02:58:24;0.40;;;0.40;;
57778;SDS011;43608;49.486;9.640;2022-10-15T02:58:54;0.32;;;0.32;;
57778;SDS011;43608;49.486;9.640;2022-10-15T02:59:25;0.60;;;0.60;;
57778;SDS011;43608;49.486;9.640;2022-10-15T02:59:56;0.50;;;0.50;;
57778;SDS011;43608;49.486;9.640;2022-10-15T03:00:26;0.47;;;0.47;;
57778;SDS011;43608;49.486;9.640;2022-10-15T03:00:56;0.50;;;0.50;;
57778;SDS011;43608;49.486;9.640;2022-10-15T03:01:27;0.30;;;0.30;;
57778;SDS011;43608;49.486;9.640;2022-10-15T03:01:57;0.38;;;0.38;;
57778;SDS011;43608;49.486;9.640;2022-10-15T03:02:27;0.38;;;0.38;;
57778;SDS011;43608;49.486;9.640;2022-10-15T03:02:58;0.40;;;0.40;;
57778;SDS011;43608;49.486;9.640;2022-10-15T03:03:28;0.50;;;0.50;;
57778;SDS011;43608;49.486;9.640;2022-10-15T03:03:59;0.30;;;0.30;;
57778;SDS011;43608;49.486;9.640;2022-10-15T03:04:30;0.32;;;0.32;;
57778;SDS011;43608;49.486;9.640;2022-10-15T03:05:00;0.55;;;0.55;;
57778;SDS011;43608;49.486;9.640;2022-10-15T03:05:31;0.28;;;0.28;;
57778;SDS011;43608;49.486;9.640;2022-10-15T03:06:03;0.40;;;0.40;;
57778;SDS011;43608;49.486;9.640;2022-10-15T03:06:35;0.50;;;0.50;;
57778;SDS011;43608;49.486;9.640;2022-10-15T03:07:05;0.38;;;0.38;;
57778;SDS011;43608;49.486;9.640;2022-10-15T03:07:35;0.40;;;0.40;;
57778;SDS011;43608;49.486;9.640;2022-10-15T03:08:06;0.38;;;0.38;;
57778;SDS011;43608;49.486;9.640;2022-10-15T03:08:36;0.38;;;0.38;;
57778;SDS011;43608;49.486;9.640;2022-10-15T03:09:07;0.40;;;0.40;;
57778;SDS011;43608;49.486;9.640;2022-10-15T03:09:37;0.38;;;0.38;;
57778;SDS011;43608;49.486;9.640;2022-10-15T03:10:07;0.40;;;0.40;;
57778;SDS011;43608;49.486;9.640;2022-10-15T03:10:38;0.50;;;0.50;;
57778;SDS011;43608;49.486;9.640;2022-10-15T03:11:09;0.35;;;0.35;;
57778;SDS011;43608;49.486;9.640;2022-10-15T03:11:40;0.30;;;0.30;;
57778;SDS011;43608;49.486;9.640;2022-10-15T03:12:10;0.32;;;0.32;;
57778;SDS011;43608;49.486;9.640;2022-10-15T03:12:40;0.40;;;0.40;;
57778;SDS011;43608;49.486;9.640;2022-10-15T03:13:11;0.38;;;0.38;;
57778;SDS011;43608;49.486;9.640;2022-10-15T03:13:41;0.45;;;0.45;;
57778;SDS011;43608;49.486;9.640;2022-10-15T03:14:12;0.10;;;0.10;;
57778;SDS011;43608;49.486;9.640;2022-10-15T03:14:42;0.25;;;0.20;;
57778;SDS011;43608;49.486;9.640;2022-10-15T03:15:12;0.28;;;0.22;;
57778;SDS011;43608;49.486;9.640;2022-10-15T03:15:43;0.15;;;0.15;;
57778;SDS011;43608;49.486;9.640;2022-10-15T03:16:13;0.30;;;0.30;;
57778;SDS011;43608;49.486;9.640;2022-10-15T03:16:44;0.55;;;0.43;;
57778;SDS011;43608;49.486;9.640;2022-10-15T03:17:14;0.30;;;0.30;;
57778;SDS011;43608;49.486;9.640;2022-10-15T03:17:45;0.40;;;0.40;;
57778;SDS011;43608;49.486;9.640;2022-10-15T03:18:15;0.20;;;0.20;;
57778;SDS011;43608;49.486;9.640;2022-10-15T03:18:45;0.30;;;0.30;;
57778;SDS011;43608;49.486;9.640;2022-10-15T03:19:16;0.20;;;0.20;;
57778;SDS011;43608;49.486;9.640;2022-10-15T03:19:46;0.20;;;0.20;;
57778;SDS011;43608;49.486;9.640;2022-10-15T03:20:17;0.30;;;0.30;;
57778;SDS011;43608;49.486;9.640;2022-10-15T03:20:56;0.20;;;0.20;;
57778;SDS011;43608;49.486;9.640;2022-10-15T03:21:27;0.20;;;0.15;;
57778;SDS011;43608;49.486;9.640;2022-10-15T03:22:00;0.30;;;0.30;;
57778;SDS011;43608;49.486;9.640;2022-10-15T03:22:30;0.30;;;0.30;;
57778;SDS011;43608;49.486;9.640;2022-10-15T03:23:00;0.30;;;0.30;;
57778;SDS011;43608;49.486;9.640;2022-10-15T03:23:31;0.30;;;0.30;;
57778;SDS011;43608;49.486;9.640;2022-10-15T03:24:01;0.30;;;0.30;;
57778;SDS011;43608;49.486;9.640;2022-10-15T03:24:32;0.10;;;0.10;;
57778;SDS011;43608;49.486;9.640;2022-10-15T03:25:02;0.40;;;0.40;;
57778;SDS011;43608;49.486;9.640;2022-10-15T03:25:33;0.20;;;0.20;;
57778;SDS011;43608;49.486;9.640;2022-10-15T03:26:03;0.20;;;0.20;;
57778;SDS011;43608;49.486;9.640;2022-10-15T03:26:34;0.30;;;0.30;;
57778;SDS011;43608;49.486;9.640;2022-10-15T03:27:04;0.40;;;0.40;;
57778;SDS011;43608;49.486;9.640;2022-10-15T03:27:35;0.20;;;0.20;;
57778;SDS011;43608;49.486;9.640;2022-10-15T03:28:05;0.20;;;0.20;;
57778;SDS011;43608;49.486;9.640;2022-10-15T03:28:35;0.43;;;0.43;;
57778;SDS011;43608;49.486;9.640;2022-10-15T03:29:06;0.30;;;0.30;;
57778;SDS011;43608;49.486;9.640;2022-10-15T03:29:36;0.30;;;0.30;;
57778;SDS011;43608;49.486;9.640;2022-10-15T03:30:07;0.25;;;0.25;;
57778;SDS011;43608;49.486;9.640;2022-10-15T03:30:37;0.20;;;0.20;;
57778;SDS011;43608;49.486;9.640;2022-10-15T03:31:08;0.20;;;0.20;;
57778;SDS011;43608;49.486;9.640;2022-10-15T03:31:38;0.20;;;0.20;;
57778;SDS011;43608;49.486;9.640;2022-10-15T03:32:08;0.28;;;0.28;;
57778;SDS011;43608;49.486;9.640;2022-10-15T03:32:39;0.20;;;0.20;;
57778;SDS011;43608;49.486;9.640;2022-10-15T03:33:09;0.45;;;0.35;;
57778;SDS011;43608;49.486;9.640;2022-10-15T03:33:40;0.20;;;0.20;;
57778;SDS011;43608;49.486;9.640;2022-10-15T03:34:10;0.28;;;0.28;;
57778;SDS011;43608;49.486;9.640;2022-10-15T03:34:40;0.30;;;0.30;;
57778;SDS011;43608;49.486;9.640;2022-10-15T03:35:11;0.32;;;0.32;;
57778;SDS011;43608;49.486;9.640;2022-10-15T03:35:41;0.32;;;0.30;;
57778;SDS011;43608;49.486;9.640;2022-10-15T03:36:12;0.20;;;0.20;;
57778;SDS011;43608;49.486;9.640;2022-10-15T03:36:42;0.17;;;0.17;;
57778;SDS011;43608;49.486;9.640;2022-10-15T03:37:13;0.22;;;0.22;;
57778;SDS011;43608;49.486;9.640;2022-10-15T03:37:43;0.30;;;0.30;;
57778;SDS011;43608;49.486;9.640;2022-10-15T03:38:13;0.22;;;0.22;;
57778;SDS011;43608;49.486;9.640;2022-10-15T03:38:44;0.25;;;0.25;;
57778;SDS011;43608;49.486;9.640;2022-10-15T03:39:14;0.32;;;0.30;;
57778;SDS011;43608;49.486;9.640;2022-10-15T03:39:44;0.30;;;0.30;;
57778;SDS011;43608;49.486;9.640;2022-10-15T03:40:15;0.40;;;0.40;;
57778;SDS011;43608;49.486;9.640;2022-10-15T03:40:45;0.20;;;0.20;;
57778;SDS011;43608;49.486;9.640;2022-10-15T03:41:16;0.20;;;0.20;;
57778;SDS011;43608;49.486;9.640;2022-10-15T03:41:46;0.20;;;0.20;;
57778;SDS011;43608;49.486;9.640;2022-10-15T03:42:17;0.20;;;0.20;;
57778;SDS011;43608;49.486;9.640;2022-10-15T03:42:50;0.30;;;0.30;;
57778;SDS011;43608;49.486;9.640;2022-10-15T03:43:22;0.20;;;0.20;;
57778;SDS011;43608;49.486;9.640;2022-10-15T03:43:54;0.38;;;0.30;;